KCMY

Sparta / Fort Mc Coy Airport

Sparta, Wisconsin, USA
METAR KCMY 191935Z AUTO 24008KT 10SM OVC014 10/09 A2974 RMK AO2 T01030091
Observed Flight Rules
Oct-19 @ 19:35 UTC (23 minutes ago) Marginal Visual Flight Rules
Wind Visibility Clouds
240° at 8 knots 10 miles
  • Overcast at 1,400' AGL
Temperatures Readings
Current 10°C / 50°F
Dewpoint 9°C / 48°F
Humidity 94%
Altimeter 29.74" Hg
Pressure 1007 hPa
Elevation 256
METAR KCMY 191935Z AUTO 24008KT 10SM OVC014 10/09 A2974 RMK AO2 T01030091
Observed Flight Rules
Oct-19 @ 19:35 UTC
(23 minutes ago)
MVFR
Wind Visibility
240° at 8 knots 10 miles
Clouds
  • Overcast at 1,400' AGL
Temperature Dewpoint
10°C / 50°F 9°C / 48°F
Humidity Altimeter Pressure
94% 29.74" Hg 1007 hPa